Grand Princess — ZCBU5 — position and weather

sailwx.info

Track history (hours):
 
Tides and Currents Weather Stations Pressure Air Temp Water Temp Dewpoint Dewpoint Depression Visibility Wind Speed Wind Dir Waves Ship Positions

Grand Princess

Operator: Princess Cruises

Last reported at 2017-Apr-26 20:00 UTC. Time now 2017-Apr-27 01:32 UTC.
Position N 27°18' W 144°24'.

Length 289.5 m; beam 36 m; draft 8.5 m.

Type: Ship. MMSI: 310327000.

Wind from 120 at 20 knots

Barometer 1029.0 mb
Air temperature 20.5 ° C
Visibility: greater than 10.8 NM
Dewpoint 18.1 ° C
Water temperature 23.0 ° C

Date/timePositionNaut miles runAvg speedWind from/ knotsBaromVisibWave heightAir tempDewpointWater temp
2017-Apr-26 20:00N 27°18' W 144°24'25019.3 120 / 201029.010.8 20.518.123.0
2017-Apr-26 07:00N 29°24' W 140°18'47619.9 110 / 121031.210.8 19.014.721.0
2017-Apr-25 07:00N 33°18' W 132°12'42818.9 290 / 181029.810.8 16.012.417.0
2017-Apr-24 08:20N 36°51' W 124°39'817.6
2017-Apr-24 07:51N 36°55' W 124°30'2317.4
2017-Apr-24 06:32N 37°06' W 124°05'118.1
2017-Apr-24 06:30N 37°06' W 124°04'918.1
2017-Apr-24 06:00N 37°00' W 124°12'19261.2 300 / 301021.110.8 13.0 9.114.0
2017-Apr-24 05:55N 37°12' W 123°53'818.4
2017-Apr-24 05:30N 37°16' W 123°44'918.1
2017-Apr-24 04:59N 37°20' W 123°34'1117.7
2017-Apr-24 04:21N 37°26' W 123°22'618.0
2017-Apr-24 04:00N 37°29' W 123°15'918.4
2017-Apr-24 03:30N 37°34' W 123°05'918.0
2017-Apr-24 03:00N 37°39' W 122°56'917.6
2017-Apr-24 02:31N 37°43' W 122°46'612.6
2017-Apr-24 02:00N 37°46' W 122°39'815.7
2017-Apr-24 01:30N 37°49' W 122°30'5 8.4
2017-Apr-24 00:58N 37°48' W 122°24'0 0.0
2017-Apr-24 00:30N 37°48' W 122°24'0 0.0
2017-Apr-24 00:00N 37°48' W 122°24'0 0.0
2017-Apr-23 23:30N 37°48' W 122°24'0 0.0
2017-Apr-23 23:00N 37°48' W 122°24'0 0.0
2017-Apr-23 22:30N 37°48' W 122°24'0 0.0
2017-Apr-23 21:56N 37°48' W 122°24'0 0.0
2017-Apr-23 21:29N 37°48' W 122°24'0 0.0
2017-Apr-23 20:59N 37°48' W 122°24'0 0.0
2017-Apr-23 20:29N 37°48' W 122°24'0 0.0
2017-Apr-23 19:59N 37°48' W 122°24'0 0.0
2017-Apr-23 19:28N 37°48' W 122°24'0 0.0
2017-Apr-23 18:55N 37°48' W 122°24'0 0.0
2017-Apr-23 18:25N 37°48' W 122°24'0 0.0
2017-Apr-23 17:46N 37°48' W 122°24'0 0.0
2017-Apr-23 17:30N 37°48' W 122°24'0 0.0
2017-Apr-23 17:00N 37°48' W 122°24'0 0.0
2017-Apr-23 16:30N 37°48' W 122°24'0 0.0
2017-Apr-23 16:00N 37°48' W 122°24'0 0.0
2017-Apr-23 15:30N 37°48' W 122°24'0 0.0
2017-Apr-23 14:59N 37°48' W 122°24'0 0.0
2017-Apr-23 13:59N 37°48' W 122°24'0 0.2
2017-Apr-23 13:30N 37°48' W 122°24'1 2.3
2017-Apr-23 13:00N 37°49' W 122°25'612.4
2017-Apr-23 12:30N 37°47' W 122°33'714.0
2017-Apr-23 12:01N 37°44' W 122°41'611.3
2017-Apr-23 11:30N 37°39' W 122°40'713.3
2017-Apr-23 11:01N 37°32' W 122°40'713.4
2017-Apr-23 10:30N 37°25' W 122°40'612.7
2017-Apr-23 10:00N 37°19' W 122°39'511.0
2017-Apr-23 09:30N 37°14' W 122°37'611.1
2017-Apr-23 09:00N 37°09' W 122°34'611.2
2017-Apr-23 08:29N 37°03' W 122°31'611.6
2017-Apr-23 08:00N 36°58' W 122°29'611.8
2017-Apr-23 07:30N 36°53' W 122°26'611.6
2017-Apr-23 07:00N 36°47' W 122°23'612.0
2017-Apr-23 06:30N 36°42' W 122°19'612.1
2017-Apr-23 06:00N 36°37' W 122°16'714.1
2017-Apr-23 05:30N 36°30' W 122°12'815.7
2017-Apr-23 05:00N 36°23' W 122°09'815.7
2017-Apr-23 04:30N 36°16' W 122°05'816.0
2017-Apr-23 04:00N 36°09' W 122°01'815.8
2017-Apr-23 03:30N 36°01' W 121°57'714.8
2017-Apr-23 03:00N 35°55' W 121°53'815.3
2017-Apr-23 02:30N 35°48' W 121°49'815.5
2017-Apr-23 02:00N 35°40' W 121°45'816.1
2017-Apr-23 01:30N 35°33' W 121°41'816.2
2017-Apr-23 01:01N 35°26' W 121°36'815.7
2017-Apr-23 00:30N 35°19' W 121°32'815.3
2017-Apr-23 00:01N 35°12' W 121°28'815.2
2017-Apr-22 23:31N 35°06' W 121°24'815.0
2017-Apr-22 23:00N 34°58' W 121°21'714.3
2017-Apr-22 22:30N 34°52' W 121°18'713.8
2017-Apr-22 22:00N 34°46' W 121°13'713.7
2017-Apr-22 21:30N 34°40' W 121°08'714.2
2017-Apr-22 21:01N 34°34' W 121°03'714.3
2017-Apr-22 20:31N 34°28' W 120°59'714.7
2017-Apr-22 20:01N 34°22' W 120°55'714.5
2017-Apr-22 19:30N 34°15' W 120°51'714.9
2017-Apr-22 19:01N 34°09' W 120°47'714.7
2017-Apr-22 18:30N 34°02' W 120°43'714.7
2017-Apr-22 18:00N 33°56' W 120°38'714.8
2017-Apr-22 17:30N 33°51' W 120°31'714.8
2017-Apr-22 17:00N 33°46' W 120°25'714.4
2017-Apr-22 16:30N 33°41' W 120°19'714.8
2017-Apr-22 16:01N 33°36' W 120°12'714.6
2017-Apr-22 15:30N 33°31' W 120°06'815.1
2017-Apr-22 15:00N 33°27' W 119°58'815.4
2017-Apr-22 14:30N 33°26' W 119°49'1616.2
2017-Apr-22 13:31N 33°27' W 119°30'816.4
2017-Apr-22 13:00N 33°27' W 119°20'816.9
2017-Apr-22 12:31N 33°23' W 119°11'917.0
2017-Apr-22 12:01N 33°19' W 119°02'917.1
2017-Apr-22 11:30N 33°15' W 118°53'817.0
2017-Apr-22 11:01N 33°11' W 118°44'816.8
2017-Apr-22 10:30N 33°07' W 118°35'817.0
2017-Apr-22 10:01N 33°03' W 118°26'917.6
2017-Apr-22 09:30N 32°57' W 118°18'917.8
2017-Apr-22 09:00N 32°52' W 118°10'917.2
2017-Apr-22 08:30N 32°46' W 118°02'917.1
2017-Apr-22 08:00N 32°41' W 117°53'816.8
2017-Apr-22 07:31N 32°35' W 117°47'816.5
2017-Apr-22 07:01N 32°28' W 117°41'918.4
2017-Apr-22 06:31N 32°21' W 117°35'1018.8
2017-Apr-22 06:00N 32°14' W 117°27'1019.1
2017-Apr-22 05:30N 32°07' W 117°19'918.7
2017-Apr-22 05:00N 32°01' W 117°11'1019.0
2017-Apr-22 04:30N 31°57' W 117°01'918.8
2017-Apr-22 04:00N 31°54' W 116°50'10 1.5
2017-Apr-21 21:14N 31°44' W 116°54'419.4
2017-Apr-21 21:00N 31°42' W 116°59'919.0
2017-Apr-21 20:30N 31°38' W 117°09'1019.0
2017-Apr-21 20:00N 31°35' W 117°19'1019.4
2017-Apr-21 19:30N 31°31' W 117°30'1019.3
2017-Apr-21 19:00N 31°27' W 117°40'1019.2
2017-Apr-21 18:30N 31°23' W 117°51'1019.5
2017-Apr-21 18:00N 31°19' W 118°01'1020.9
2017-Apr-21 17:30N 31°15' W 118°12'1020.6
2017-Apr-21 17:00N 31°10' W 118°23'1020.4
2017-Apr-21 16:30N 31°07' W 118°34'1020.6
2017-Apr-21 16:00N 31°04' W 118°46'1020.4
2017-Apr-21 15:30N 31°01' W 118°57'1020.6
2017-Apr-21 15:00N 30°59' W 119°09'1020.4
2017-Apr-21 14:30N 30°56' W 119°20'2120.6
2017-Apr-21 13:30N 30°50' W 119°43'1020.5
2017-Apr-21 13:00N 30°47' W 119°54'1020.2
2017-Apr-21 12:30N 30°44' W 120°06'1019.9
2017-Apr-21 12:00N 30°41' W 120°17'4720.3
2017-Apr-21 09:42N 30°28' W 121°09'720.6
2017-Apr-21 09:23N 30°26' W 121°16'1320.9
2017-Apr-21 08:46N 30°22' W 121°31'520.8
2017-Apr-21 08:30N 30°21' W 121°37'1020.7
2017-Apr-21 08:00N 30°18' W 121°48'1020.7
2017-Apr-21 07:30N 30°15' W 121°60'612.3
2017-Apr-21 07:00N 30°12' W 122°06'5133.8 340 / 371024.710.8 15.512.817.0
2017-Apr-21 06:57N 30°12' W 122°12'920.6
2017-Apr-21 06:30N 30°09' W 122°23'47220.1
2017-Apr-20 07:00N 27°54' W 131°00'46920.4 090 / 121028.310.8 18.517.721.0
2017-Apr-19 08:00N 25°42' W 139°24'49620.7 040 / 131025.510.8 20.013.023.0
2017-Apr-18 08:00N 23°18' W 148°06'16020.0 050 / 201024.610.8 21.513.825.0
2017-Apr-18 00:00N 22°36' W 150°54'27318.2 050 / 251020.010.8 22.015.325.0
2017-Apr-17 09:00N 21°18' W 155°36'   040 / 281023.410.8 24.021.028.0
Track history (hours):
 
Tides and Currents Weather Stations Pressure Air Temp Water Temp Dewpoint Dewpoint Depression Visibility Wind Speed Wind Dir Waves Ship Positions

Grand Princess

Operator: Princess Cruises

Last reported at 2017-Apr-26 20:00 UTC. Time now 2017-Apr-27 01:32 UTC.
Position N 27°18' W 144°24'.

Length 289.5 m; beam 36 m; draft 8.5 m.

Type: Ship. MMSI: 310327000.

Wind from 120 at 20 knots

Barometer 1029.0 mb
Air temperature 20.5 ° C
Visibility: greater than 10.8 NM
Dewpoint 18.1 ° C
Water temperature 23.0 ° C

Date/timePositionNaut miles runAvg speedWind from/ knotsBaromVisibWave heightAir tempDewpointWater temp
2017-Apr-26 20:00N 27°18' W 144°24'25019.3 120 / 201029.010.8 20.518.123.0
2017-Apr-26 07:00N 29°24' W 140°18'47619.9 110 / 121031.210.8 19.014.721.0
2017-Apr-25 07:00N 33°18' W 132°12'42818.9 290 / 181029.810.8 16.012.417.0
2017-Apr-24 08:20N 36°51' W 124°39'817.6
2017-Apr-24 07:51N 36°55' W 124°30'2317.4
2017-Apr-24 06:32N 37°06' W 124°05'118.1
2017-Apr-24 06:30N 37°06' W 124°04'918.1
2017-Apr-24 06:00N 37°00' W 124°12'19261.2 300 / 301021.110.8 13.0 9.114.0
2017-Apr-24 05:55N 37°12' W 123°53'818.4
2017-Apr-24 05:30N 37°16' W 123°44'918.1
2017-Apr-24 04:59N 37°20' W 123°34'1117.7
2017-Apr-24 04:21N 37°26' W 123°22'618.0
2017-Apr-24 04:00N 37°29' W 123°15'918.4
2017-Apr-24 03:30N 37°34' W 123°05'918.0
2017-Apr-24 03:00N 37°39' W 122°56'917.6
2017-Apr-24 02:31N 37°43' W 122°46'612.6
2017-Apr-24 02:00N 37°46' W 122°39'815.7
2017-Apr-24 01:30N 37°49' W 122°30'5 8.4
2017-Apr-24 00:58N 37°48' W 122°24'0 0.0
2017-Apr-24 00:30N 37°48' W 122°24'0 0.0
2017-Apr-24 00:00N 37°48' W 122°24'0 0.0
2017-Apr-23 23:30N 37°48' W 122°24'0 0.0
2017-Apr-23 23:00N 37°48' W 122°24'0 0.0
2017-Apr-23 22:30N 37°48' W 122°24'0 0.0
2017-Apr-23 21:56N 37°48' W 122°24'0 0.0
2017-Apr-23 21:29N 37°48' W 122°24'0 0.0
2017-Apr-23 20:59N 37°48' W 122°24'0 0.0
2017-Apr-23 20:29N 37°48' W 122°24'0 0.0
2017-Apr-23 19:59N 37°48' W 122°24'0 0.0
2017-Apr-23 19:28N 37°48' W 122°24'0 0.0
2017-Apr-23 18:55N 37°48' W 122°24'0 0.0
2017-Apr-23 18:25N 37°48' W 122°24'0 0.0
2017-Apr-23 17:46N 37°48' W 122°24'0 0.0
2017-Apr-23 17:30N 37°48' W 122°24'0 0.0
2017-Apr-23 17:00N 37°48' W 122°24'0 0.0
2017-Apr-23 16:30N 37°48' W 122°24'0 0.0
2017-Apr-23 16:00N 37°48' W 122°24'0 0.0
2017-Apr-23 15:30N 37°48' W 122°24'0 0.0
2017-Apr-23 14:59N 37°48' W 122°24'0 0.0
2017-Apr-23 13:59N 37°48' W 122°24'0 0.2
2017-Apr-23 13:30N 37°48' W 122°24'1 2.3
2017-Apr-23 13:00N 37°49' W 122°25'612.4
2017-Apr-23 12:30N 37°47' W 122°33'714.0
2017-Apr-23 12:01N 37°44' W 122°41'611.3
2017-Apr-23 11:30N 37°39' W 122°40'713.3
2017-Apr-23 11:01N 37°32' W 122°40'713.4
2017-Apr-23 10:30N 37°25' W 122°40'612.7
2017-Apr-23 10:00N 37°19' W 122°39'511.0
2017-Apr-23 09:30N 37°14' W 122°37'611.1
2017-Apr-23 09:00N 37°09' W 122°34'611.2
2017-Apr-23 08:29N 37°03' W 122°31'611.6
2017-Apr-23 08:00N 36°58' W 122°29'611.8
2017-Apr-23 07:30N 36°53' W 122°26'611.6
2017-Apr-23 07:00N 36°47' W 122°23'612.0
2017-Apr-23 06:30N 36°42' W 122°19'612.1
2017-Apr-23 06:00N 36°37' W 122°16'714.1
2017-Apr-23 05:30N 36°30' W 122°12'815.7
2017-Apr-23 05:00N 36°23' W 122°09'815.7
2017-Apr-23 04:30N 36°16' W 122°05'816.0
2017-Apr-23 04:00N 36°09' W 122°01'815.8
2017-Apr-23 03:30N 36°01' W 121°57'714.8
2017-Apr-23 03:00N 35°55' W 121°53'815.3
2017-Apr-23 02:30N 35°48' W 121°49'815.5
2017-Apr-23 02:00N 35°40' W 121°45'816.1
2017-Apr-23 01:30N 35°33' W 121°41'816.2
2017-Apr-23 01:01N 35°26' W 121°36'815.7
2017-Apr-23 00:30N 35°19' W 121°32'815.3
2017-Apr-23 00:01N 35°12' W 121°28'815.2
2017-Apr-22 23:31N 35°06' W 121°24'815.0
2017-Apr-22 23:00N 34°58' W 121°21'714.3
2017-Apr-22 22:30N 34°52' W 121°18'713.8
2017-Apr-22 22:00N 34°46' W 121°13'713.7
2017-Apr-22 21:30N 34°40' W 121°08'714.2
2017-Apr-22 21:01N 34°34' W 121°03'714.3
2017-Apr-22 20:31N 34°28' W 120°59'714.7
2017-Apr-22 20:01N 34°22' W 120°55'714.5
2017-Apr-22 19:30N 34°15' W 120°51'714.9
2017-Apr-22 19:01N 34°09' W 120°47'714.7
2017-Apr-22 18:30N 34°02' W 120°43'714.7
2017-Apr-22 18:00N 33°56' W 120°38'714.8
2017-Apr-22 17:30N 33°51' W 120°31'714.8
2017-Apr-22 17:00N 33°46' W 120°25'714.4
2017-Apr-22 16:30N 33°41' W 120°19'714.8
2017-Apr-22 16:01N 33°36' W 120°12'714.6
2017-Apr-22 15:30N 33°31' W 120°06'815.1
2017-Apr-22 15:00N 33°27' W 119°58'815.4
2017-Apr-22 14:30N 33°26' W 119°49'1616.2
2017-Apr-22 13:31N 33°27' W 119°30'816.4
2017-Apr-22 13:00N 33°27' W 119°20'816.9
2017-Apr-22 12:31N 33°23' W 119°11'917.0
2017-Apr-22 12:01N 33°19' W 119°02'917.1
2017-Apr-22 11:30N 33°15' W 118°53'817.0
2017-Apr-22 11:01N 33°11' W 118°44'816.8
2017-Apr-22 10:30N 33°07' W 118°35'817.0
2017-Apr-22 10:01N 33°03' W 118°26'917.6
2017-Apr-22 09:30N 32°57' W 118°18'917.8
2017-Apr-22 09:00N 32°52' W 118°10'917.2
2017-Apr-22 08:30N 32°46' W 118°02'917.1
2017-Apr-22 08:00N 32°41' W 117°53'816.8
2017-Apr-22 07:31N 32°35' W 117°47'816.5
2017-Apr-22 07:01N 32°28' W 117°41'918.4
2017-Apr-22 06:31N 32°21' W 117°35'1018.8
2017-Apr-22 06:00N 32°14' W 117°27'1019.1
2017-Apr-22 05:30N 32°07' W 117°19'918.7
2017-Apr-22 05:00N 32°01' W 117°11'1019.0
2017-Apr-22 04:30N 31°57' W 117°01'918.8
2017-Apr-22 04:00N 31°54' W 116°50'10 1.5
2017-Apr-21 21:14N 31°44' W 116°54'419.4
2017-Apr-21 21:00N 31°42' W 116°59'919.0
2017-Apr-21 20:30N 31°38' W 117°09'1019.0
2017-Apr-21 20:00N 31°35' W 117°19'1019.4
2017-Apr-21 19:30N 31°31' W 117°30'1019.3
2017-Apr-21 19:00N 31°27' W 117°40'1019.2
2017-Apr-21 18:30N 31°23' W 117°51'1019.5
2017-Apr-21 18:00N 31°19' W 118°01'1020.9
2017-Apr-21 17:30N 31°15' W 118°12'1020.6
2017-Apr-21 17:00N 31°10' W 118°23'1020.4
2017-Apr-21 16:30N 31°07' W 118°34'1020.6
2017-Apr-21 16:00N 31°04' W 118°46'1020.4
2017-Apr-21 15:30N 31°01' W 118°57'1020.6
2017-Apr-21 15:00N 30°59' W 119°09'1020.4
2017-Apr-21 14:30N 30°56' W 119°20'2120.6
2017-Apr-21 13:30N 30°50' W 119°43'1020.5
2017-Apr-21 13:00N 30°47' W 119°54'1020.2
2017-Apr-21 12:30N 30°44' W 120°06'1019.9
2017-Apr-21 12:00N 30°41' W 120°17'4720.3
2017-Apr-21 09:42N 30°28' W 121°09'720.6
2017-Apr-21 09:23N 30°26' W 121°16'1320.9
2017-Apr-21 08:46N 30°22' W 121°31'520.8
2017-Apr-21 08:30N 30°21' W 121°37'1020.7
2017-Apr-21 08:00N 30°18' W 121°48'1020.7
2017-Apr-21 07:30N 30°15' W 121°60'612.3
2017-Apr-21 07:00N 30°12' W 122°06'5133.8 340 / 371024.710.8 15.512.817.0
2017-Apr-21 06:57N 30°12' W 122°12'920.6
2017-Apr-21 06:30N 30°09' W 122°23'47220.1
2017-Apr-20 07:00N 27°54' W 131°00'46920.4 090 / 121028.310.8 18.517.721.0
2017-Apr-19 08:00N 25°42' W 139°24'49620.7 040 / 131025.510.8 20.013.023.0
2017-Apr-18 08:00N 23°18' W 148°06'16020.0 050 / 201024.610.8 21.513.825.0
2017-Apr-18 00:00N 22°36' W 150°54'27318.2 050 / 251020.010.8 22.015.325.0
2017-Apr-17 09:00N 21°18' W 155°36'   040 / 281023.410.8 24.021.028.0

Dump ship's entire track history